New Canton, Virginia
Current Conditions -  °F | °C
As of 8:55 PM on Sunday 21 Dec 2014 (Local Time) from KFVX Reporting Station
Overcast Overcast  
Wind Chill: 36°   Ceiling: 4600
Heat Index: 39°   Visibility: 10mi
Dew Point: 29°   Wind: 5mph
Humidity: 69%   Direction: 20°NNE
Pressure: 30.27"   Gusts: NA
Location:  37.71°N, 78.3°W
Report Text: KFVX 220155Z AUTO 02004KT 10SM OVC046 04/M01 A3027 RMK AO2 T00391014
Loading
Personal Weather Stations






























Interactive Weather Map New forecast layout! Learn more

10-Day Weather Forecast

Advertisements
Track Severe Weather on mobile